This is the latest recevied weather packets stored in our database for station/object N3WXO-1. If no packets are shown the sender has not sent any weather packets the latest 1 day(s).
| Time | Temp. | Humidity | Pressure | Rain* | Wind** | Luminosity | Snow |
|---|---|---|---|---|---|---|---|
| 1777993525 | 22.78° C | 60% | 1010.3 hPa | 0 mm | 0.89 m/s, 216° | 742 W/m² | - |
| 1777993221 | 22.78° C | 63% | 1010.3 hPa | 0 mm | 0.45 m/s, 232° | 735 W/m² | - |
| 1777992928 | 22.78° C | 61% | 1010.3 hPa | 0 mm | 0.45 m/s, 228° | 728 W/m² | - |
| 1777992619 | 22.22° C | 60% | 1010.3 hPa | 0 mm | 0.89 m/s, 219° | 715 W/m² | - |
| 1777992322 | 21.67° C | 63% | 1010.4 hPa | 0 mm | 0.45 m/s, 237° | 710 W/m² | - |
| 1777992027 | 21.67° C | 63% | 1010.4 hPa | 0 mm | 0 m/s | 700 W/m² | - |
| 1777991735 | 21.67° C | 65% | 1010.5 hPa | 0 mm | 0 m/s | 686 W/m² | - |
| 1777991427 | 21.11° C | 68% | 1010.6 hPa | 0 mm | 0 m/s | 677 W/m² | - |
| 1777991133 | 21.11° C | 67% | 1010.7 hPa | 0 mm | 0.89 m/s, 234° | 668 W/m² | - |
| 1777990829 | 20.56° C | 70% | 1010.9 hPa | 0 mm | 0.45 m/s, 330° | 650 W/m² | - |
| 1777990513 | 20.56° C | 67% | 1010.9 hPa | 0 mm | 0 m/s | 642 W/m² | - |
| 1777990221 | 20.56° C | 72% | 1010.8 hPa | 0 mm | 0 m/s | 633 W/m² | - |
| 1777989928 | 20° C | 75% | 1010.8 hPa | 0 mm | 0 m/s | 619 W/m² | - |
| 1777989623 | 19.44° C | 76% | 1011 hPa | 0 mm | 0 m/s | 610 W/m² | - |
| 1777989330 | 18.89° C | 77% | 1011 hPa | 0 mm | 0 m/s | 594 W/m² | - |
| 1777989016 | 18.89° C | 81% | 1011.1 hPa | 0 mm | 0 m/s | 582 W/m² | - |
| 1777988723 | 18.33° C | 83% | 1011.1 hPa | 0 mm | 0 m/s | 571 W/m² | - |
| 1777988413 | 17.78° C | 83% | 1011.2 hPa | 0 mm | 0 m/s | 557 W/m² | - |
| 1777988121 | 17.22° C | 81% | 1011.4 hPa | 0 mm | 0 m/s | 541 W/m² | - |
| 1777987833 | 16.67° C | 81% | 1011.5 hPa | 0 mm | 0 m/s | 533 W/m² | - |
| 1777987514 | 16.11° C | 85% | 1011.6 hPa | 0 mm | 0 m/s | 524 W/m² | - |
| 1777987219 | 16.11° C | 88% | 1011.5 hPa | 0 mm | 0 m/s | 508 W/m² | - |
| 1777986913 | 15.56° C | 90% | 1011.5 hPa | 0 mm | 0 m/s | 499 W/m² | - |
| 1777986624 | 15° C | 91% | 1011.4 hPa | 0 mm | 0 m/s | 483 W/m² | - |
| 1777986331 | 14.44° C | 95% | 1011.4 hPa | 0 mm | 0 m/s | 279 W/m² | - |
* Rain latest hour (hover to see other rain measurements)
** Current wind speed in m/s (hover to see current wind gust speed)